TSO423 ULLI-UHWW
Flight info
| Callsign | TSO423 |
|---|---|
| Flight time | N/A |
| Altitude | 33000 |
| Route | RELNI1B RELNI T693 DISUP T821 ARGIP M58 RIGNI L168 TIRSA/K0900F350 L168 HAB/K0880F360 B355 BG G714 DAGES DAGES2N |
| Aircraft | B744/H-SDE3FGHIM1M2RWXY/LB1 |
Departure
| Time | N/A |
|---|---|
| Airport | Pulkovo Airport (ULLI) |
Arrival
| Time | 2026-05-05 18:01 |
|---|---|
| Airport | Vladivostok International Airport (UHWW) |
| Time | Latitude | Longitude | Altitude | Speed | Heading |
|---|---|---|---|---|---|
| 2026-05-05 17:41 | 44.25958 | 133.55207 | 26827 ft | 330 kts | 217° |
| 2026-05-05 17:41 | 44.23979 | 133.53621 | 26400 ft | 326 kts | 218° |
| 2026-05-05 17:41 | 44.22023 | 133.52054 | 25980 ft | 322 kts | 218° |
| 2026-05-05 17:42 | 44.20073 | 133.50492 | 25565 ft | 329 kts | 217° |
| 2026-05-05 17:42 | 44.18026 | 133.48855 | 25129 ft | 347 kts | 217° |
| 2026-05-05 17:42 | 44.15915 | 133.47160 | 24657 ft | 351 kts | 217° |
| 2026-05-05 17:42 | 44.13802 | 133.45454 | 24183 ft | 349 kts | 217° |
| 2026-05-05 17:43 | 44.11705 | 133.43772 | 23716 ft | 346 kts | 217° |
| 2026-05-05 17:43 | 44.09621 | 133.42108 | 23259 ft | 343 kts | 217° |
| 2026-05-05 17:43 | 44.07553 | 133.40463 | 22809 ft | 340 kts | 217° |
| 2026-05-05 17:43 | 44.05508 | 133.38839 | 22371 ft | 337 kts | 217° |
| 2026-05-05 17:44 | 44.03484 | 133.37234 | 21932 ft | 333 kts | 217° |
| 2026-05-05 17:44 | 44.01479 | 133.35645 | 21498 ft | 330 kts | 217° |
| 2026-05-05 17:44 | 43.99504 | 133.34080 | 21121 ft | 325 kts | 217° |
| 2026-05-05 17:44 | 43.97541 | 133.32527 | 20623 ft | 323 kts | 217° |
| 2026-05-05 17:45 | 43.95600 | 133.30992 | 20193 ft | 320 kts | 217° |
| 2026-05-05 17:45 | 43.93671 | 133.29467 | 19763 ft | 317 kts | 217° |
| 2026-05-05 17:45 | 43.91762 | 133.27958 | 19338 ft | 314 kts | 217° |
| 2026-05-05 17:45 | 43.89883 | 133.26457 | 18917 ft | 308 kts | 220° |
| 2026-05-05 17:46 | 43.88298 | 133.24590 | 18531 ft | 294 kts | 232° |
| 2026-05-05 17:46 | 43.86990 | 133.22465 | 18114 ft | 288 kts | 237° |
| 2026-05-05 17:46 | 43.85815 | 133.20254 | 17702 ft | 283 kts | 240° |
| 2026-05-05 17:46 | 43.84718 | 133.18012 | 17295 ft | 279 kts | 241° |
| 2026-05-05 17:47 | 43.83671 | 133.15774 | 16899 ft | 275 kts | 242° |
| 2026-05-05 17:47 | 43.82636 | 133.13564 | 16505 ft | 272 kts | 242° |
| 2026-05-05 17:47 | 43.81601 | 133.11396 | 16116 ft | 268 kts | 241° |
| 2026-05-05 17:47 | 43.80569 | 133.09263 | 15730 ft | 265 kts | 241° |
| 2026-05-05 17:48 | 43.79543 | 133.07161 | 15337 ft | 262 kts | 240° |
| 2026-05-05 17:48 | 43.78523 | 133.05082 | 14937 ft | 259 kts | 240° |
| 2026-05-05 17:48 | 43.77509 | 133.03024 | 14543 ft | 257 kts | 240° |
| 2026-05-05 17:48 | 43.76508 | 133.00997 | 14157 ft | 254 kts | 240° |
| 2026-05-05 17:49 | 43.75482 | 132.98921 | 13762 ft | 273 kts | 240° |
| 2026-05-05 17:49 | 43.74383 | 132.96699 | 13190 ft | 291 kts | 239° |
| 2026-05-05 17:49 | 43.73629 | 132.95177 | 12811 ft | 295 kts | 239° |
| 2026-05-05 17:49 | 43.72472 | 132.92844 | 12355 ft | 293 kts | 239° |
| 2026-05-05 17:50 | 43.71322 | 132.90526 | 11936 ft | 290 kts | 239° |
| 2026-05-05 17:50 | 43.70173 | 132.88208 | 11516 ft | 287 kts | 239° |
| 2026-05-05 17:50 | 43.69047 | 132.85939 | 11090 ft | 285 kts | 239° |
| 2026-05-05 17:50 | 43.67945 | 132.83718 | 10678 ft | 283 kts | 239° |
| 2026-05-05 17:51 | 43.66832 | 132.81478 | 10410 ft | 276 kts | 239° |
| 2026-05-05 17:51 | 43.65785 | 132.79316 | 10045 ft | 272 kts | 241° |
| 2026-05-05 17:51 | 43.64843 | 132.77114 | 9953 ft | 259 kts | 243° |
| 2026-05-05 17:51 | 43.63993 | 132.74978 | 9781 ft | 249 kts | 244° |
| 2026-05-05 17:52 | 43.63170 | 132.72902 | 9485 ft | 244 kts | 244° |
| 2026-05-05 17:52 | 43.62357 | 132.70882 | 9249 ft | 239 kts | 243° |
| 2026-05-05 17:52 | 43.61506 | 132.68792 | 8880 ft | 261 kts | 243° |
| 2026-05-05 17:52 | 43.60598 | 132.66576 | 8487 ft | 268 kts | 243° |
| 2026-05-05 17:53 | 43.59681 | 132.64344 | 8090 ft | 266 kts | 243° |
| 2026-05-05 17:53 | 43.58770 | 132.62130 | 7704 ft | 264 kts | 243° |
| 2026-05-05 17:53 | 43.57867 | 132.59935 | 7322 ft | 262 kts | 243° |
| 2026-05-05 17:53 | 43.56966 | 132.57745 | 6945 ft | 261 kts | 243° |
| 2026-05-05 17:54 | 43.56074 | 132.55580 | 6568 ft | 259 kts | 242° |
| 2026-05-05 17:54 | 43.55190 | 132.53441 | 6203 ft | 256 kts | 242° |
| 2026-05-05 17:54 | 43.54341 | 132.51385 | 5849 ft | 254 kts | 242° |
| 2026-05-05 17:54 | 43.53439 | 132.49201 | 5474 ft | 252 kts | 242° |
| 2026-05-05 17:55 | 43.52592 | 132.47090 | 5116 ft | 250 kts | 243° |
| 2026-05-05 17:55 | 43.51766 | 132.44992 | 4761 ft | 248 kts | 243° |
| 2026-05-05 17:55 | 43.50942 | 132.42921 | 4435 ft | 243 kts | 243° |
| 2026-05-05 17:55 | 43.50137 | 132.40913 | 4248 ft | 237 kts | 242° |
| 2026-05-05 17:56 | 43.49353 | 132.38959 | 4155 ft | 234 kts | 242° |
| 2026-05-05 17:56 | 43.48588 | 132.37054 | 3981 ft | 217 kts | 242° |
| 2026-05-05 17:56 | 43.47895 | 132.35330 | 3776 ft | 194 kts | 242° |
| 2026-05-05 17:56 | 43.47279 | 132.33797 | 3562 ft | 172 kts | 242° |
| 2026-05-05 17:57 | 43.46709 | 132.32380 | 3443 ft | 168 kts | 242° |
| 2026-05-05 17:57 | 43.46142 | 132.30972 | 3351 ft | 169 kts | 242° |
| 2026-05-05 17:57 | 43.45573 | 132.29558 | 3066 ft | 165 kts | 242° |
| 2026-05-05 17:57 | 43.45039 | 132.28231 | 2765 ft | 153 kts | 242° |
| 2026-05-05 17:58 | 43.44541 | 132.26994 | 2500 ft | 147 kts | 242° |
| 2026-05-05 17:58 | 43.44047 | 132.25768 | 2209 ft | 146 kts | 241° |
| 2026-05-05 17:58 | 43.43551 | 132.24538 | 1845 ft | 148 kts | 241° |
| 2026-05-05 17:58 | 43.43055 | 132.23305 | 1452 ft | 146 kts | 240° |
| 2026-05-05 17:59 | 43.42568 | 132.22096 | 1104 ft | 143 kts | 240° |
| 2026-05-05 17:59 | 43.42085 | 132.20887 | 720 ft | 143 kts | 240° |
| 2026-05-05 17:59 | 43.41617 | 132.19689 | 505 ft | 141 kts | 239° |
| 2026-05-05 17:59 | 43.41132 | 132.18516 | 341 ft | 142 kts | 238° |
| 2026-05-05 18:00 | 43.40651 | 132.17341 | 174 ft | 142 kts | 239° |
| 2026-05-05 18:00 | 43.40175 | 132.16150 | 59 ft | 137 kts | 239° |
| 2026-05-05 18:00 | 43.39712 | 132.14997 | 58 ft | 135 kts | 238° |
| 2026-05-05 18:00 | 43.39346 | 132.14107 | 56 ft | 76 kts | 241° |
| 2026-05-05 18:01 | 43.39157 | 132.13641 | 56 ft | 35 kts | 242° |
| 2026-05-05 18:01 | 43.39091 | 132.13469 | 56 ft | 15 kts | 242° |
| 2026-05-05 18:01 | 43.39041 | 132.13345 | 56 ft | 14 kts | 241° |
| 2026-05-05 18:01 | 43.38994 | 132.13229 | 56 ft | 13 kts | 241° |
| 2026-05-05 18:02 | 43.38950 | 132.13122 | 56 ft | 12 kts | 229° |
| 2026-05-05 18:02 | 43.38872 | 132.13120 | 56 ft | 12 kts | 152° |
| 2026-05-05 18:02 | 43.38805 | 132.13174 | 56 ft | 11 kts | 143° |
| 2026-05-05 18:02 | 43.38775 | 132.13261 | 56 ft | 10 kts | 88° |
| 2026-05-05 18:03 | 43.38801 | 132.13350 | 56 ft | 10 kts | 60° |
| 2026-05-05 18:03 | 43.38834 | 132.13430 | 56 ft | 10 kts | 60° |
| 2026-05-05 18:03 | 43.38866 | 132.13507 | 56 ft | 9 kts | 60° |
| 2026-05-05 18:03 | 43.38896 | 132.13582 | 56 ft | 9 kts | 61° |
| 2026-05-05 18:04 | 43.38924 | 132.13654 | 56 ft | 8 kts | 61° |
| 2026-05-05 18:04 | 43.38952 | 132.13723 | 56 ft | 8 kts | 61° |
| 2026-05-05 18:04 | 43.38978 | 132.13789 | 56 ft | 8 kts | 61° |
| 2026-05-05 18:04 | 43.39003 | 132.13852 | 56 ft | 7 kts | 61° |
| 2026-05-05 18:05 | 43.39036 | 132.13933 | 56 ft | 13 kts | 61° |
| 2026-05-05 18:05 | 43.39089 | 132.14065 | 56 ft | 19 kts | 61° |
| 2026-05-05 18:05 | 43.39160 | 132.14240 | 56 ft | 23 kts | 61° |
| 2026-05-05 18:05 | 43.39246 | 132.14454 | 56 ft | 28 kts | 61° |
| 2026-05-05 18:06 | 43.39342 | 132.14695 | 56 ft | 28 kts | 61° |
| 2026-05-05 18:06 | 43.39404 | 132.14846 | 56 ft | 26 kts | 60° |
| 2026-05-05 18:06 | 43.39515 | 132.15121 | 56 ft | 23 kts | 61° |
| 2026-05-05 18:06 | 43.39590 | 132.15308 | 56 ft | 22 kts | 61° |
| 2026-05-05 18:07 | 43.39663 | 132.15488 | 56 ft | 21 kts | 61° |
| 2026-05-05 18:07 | 43.39732 | 132.15661 | 56 ft | 20 kts | 61° |
| 2026-05-05 18:07 | 43.39798 | 132.15825 | 56 ft | 19 kts | 61° |
| 2026-05-05 18:07 | 43.39861 | 132.15980 | 56 ft | 18 kts | 61° |
| 2026-05-05 18:08 | 43.39878 | 132.16121 | 56 ft | 15 kts | 134° |
| 2026-05-05 18:08 | 43.39794 | 132.16180 | 56 ft | 11 kts | 154° |
| 2026-05-05 18:08 | 43.39751 | 132.16243 | 56 ft | 4 kts | 110° |
| 2026-05-05 18:08 | 43.39739 | 132.16274 | 56 ft | 4 kts | 129° |
| 2026-05-05 18:09 | 43.39718 | 132.16295 | 56 ft | 4 kts | 151° |
| 2026-05-05 18:09 | 43.39697 | 132.16311 | 56 ft | 3 kts | 151° |
| 2026-05-05 18:09 | 43.39677 | 132.16326 | 56 ft | 3 kts | 151° |
| 2026-05-05 18:09 | 43.39667 | 132.16333 | 56 ft | 0 kts | 151° |